This is the latest recevied weather packets stored in our database for station/object DL7MAP-13. If no packets are shown the sender has not sent any weather packets the latest 10 day(s).
| Time | Temp. | Humidity | Pressure | Rain* | Wind** | Luminosity | Snow |
|---|---|---|---|---|---|---|---|
| 1777834687 | 22.78° C | 43% | 1004.6 hPa | - | - | - | - |
| 1777833787 | 23.33° C | 41% | 1004.5 hPa | - | - | - | - |
| 1777832887 | 24.44° C | 38% | 1004.4 hPa | - | - | - | - |
| 1777831987 | 25.56° C | 34% | 1004.5 hPa | - | - | - | - |
| 1777831087 | 26.11° C | 32% | 1004.7 hPa | - | - | - | - |
| 1777830186 | 26.67° C | 30% | 1004.1 hPa | - | - | - | - |
| 1777829287 | 27.22° C | 28% | 1004.4 hPa | - | - | - | - |
| 1777828387 | 27.22° C | 27% | 1005.2 hPa | - | - | - | - |
| 1777827487 | 27.78° C | 26% | 1004.7 hPa | - | - | - | - |
| 1777826587 | 27.78° C | 25% | 1004.9 hPa | - | - | - | - |
| 1777825687 | 28.33° C | 24% | 1006 hPa | - | - | - | - |
| 1777824787 | 28.33° C | 24% | 1004.4 hPa | - | - | - | - |
| 1777823887 | 28.33° C | 24% | 1004.8 hPa | - | - | - | - |
| 1777822987 | 28.33° C | 23% | 1004.4 hPa | - | - | - | - |
| 1777822087 | 28.33° C | 22% | 1004.9 hPa | - | - | - | - |
| 1777821187 | 28.89° C | 22% | 1003.5 hPa | - | - | - | - |
| 1777820287 | 28.89° C | 22% | 1005 hPa | - | - | - | - |
| 1777819387 | 28.89° C | 23% | 1006 hPa | - | - | - | - |
| 1777818487 | 28.33° C | 25% | 1007 hPa | - | - | - | - |
| 1777817588 | 28.33° C | 27% | 1005.8 hPa | - | - | - | - |
| 1777816686 | 28.89° C | 25% | 1006.1 hPa | - | - | - | - |
| 1777815786 | 28.89° C | 28% | 1006.4 hPa | - | - | - | - |
| 1777814887 | 28.33° C | 28% | 1005.5 hPa | - | - | - | - |
| 1777813987 | 29.44° C | 26% | 1006.3 hPa | - | - | - | - |
| 1777813087 | 28.33° C | 27% | 1006.6 hPa | - | - | - | - |
* Rain since midnight (hover to see other rain measurements)
** Current wind speed in m/s (hover to see current wind gust speed)